METAR AND TAF INFORMATION
METAR FOR LEGE
ADDS - METARS form results

(1348 UTC 27 February 2020)
Data provider http://aviationweather.gov/metar/data/
 
METAR text: LEGE 271330Z 13004KT CAVOK 17/06 Q1012
Conditions at: LEGE (GERONA/COSTA BRA, ES) observed 1330 UTC 27 February 2020
Temperature: 17.0°C (63°F)
Dewpoint: 6.0°C (43°F) [RH = 48%]
Pressure (altimeter): 29.88 inches Hg (1012.0 mb)
Winds: from the SE (130 degrees) at 5 MPH (4 knots; 2.1 m/s)
Visibility: 6 or more miles (10+ km)
Ceiling: ceiling and visibility are OK
Clouds: unknown
Weather: no significant weather observed at this time

METAR text: LEGE 271300Z 14006KT 080V220 CAVOK 16/08 Q1013
Conditions at: LEGE (GERONA/COSTA BRA, ES) observed 1300 UTC 27 February 2020
Temperature: 16.0°C (61°F)
Dewpoint: 8.0°C (46°F) [RH = 59%]
Pressure (altimeter): 29.91 inches Hg (1013.0 mb)
Winds: from the SE (140 degrees) at 7 MPH (6 knots; 3.1 m/s)
Visibility: 6 or more miles (10+ km)
Ceiling: ceiling and visibility are OK
Clouds: unknown
Weather: no significant weather observed at this time

Forecast for: LEGE (GERONA/COSTA BRA, ES)
Text: TAF LEGE 271100Z 2712/2812 VRB04KT 9999 SCT060 TX20/2715Z TN08/2806Z
Forecast period: 1200 UTC 27 February 2020 to 1200 UTC 28 February 2020
Forecast type: FROM: standard forecast or significant change
Winds: variable direction winds at 5 MPH (4 knots; 2.1 m/s)
Visibility: 6 or more miles 10+ km)
Ceiling: at least 12,000 feet AGL
Clouds: scattered clouds at 6000 feet AGL
Weather: no significant weather forecast for this period
Text: PROB40
Forecast period: 1200 to 1500 UTC 27 February 2020
Forecast type: TEMPORARY: The following changes expected for less than half the time period
Winds: from the WSW (250 degrees) at 8 MPH (7 knots; 3.6 m/s)
Visibility: missing
Ceiling: unknown
Clouds: missing
Weather: no significant weather forecast for this period

 AIRPORT MAP

 RUNWAY INFORMATION
Runway 02 Runway length 7874 ft Runway width 148 ft
Runway elevation 403 ft Runway displaced threshold 0 ft Runway heading 16
Runway 20 Runway length 7874 ft Runway width 148 ft
Runway elevation 468 ft Runway displaced threshold 0 ft Runway heading 196

 AIRPORT FREQUENCIES
Type APP Name APP Frequency 120.9 MHZ
Type GND Name GND Frequency 121.7 MHZ
Type TWR Name TWR Frequency 118.5 MHZ

 AIRPORT NEAR NAVIGATION AIDS
Type VOR-DME Name Gerona Frequency 114100 KHZ
Type NDB Name Gerona Frequency 412 KHZ



Powered by Virtual Airlines Manager [v2.6.2]